Time;durP1;ratioP1;P1;durP2;ratioP2;P2;SDS_P1;SDS_P2;PMS_P1;PMS_P2;Temp;Humidity;BMP_temperature;BMP_pressure;BME280_temperature;BME280_humidity;BME280_pressure;Samples;Min_cycle;Max_cycle;Signal;HPM_P1;HPM_P2
2024/01/23 00:00:09;;;;;;;19.35;2.78;;;;;;;;;;5113989;28;20088;-77
2024/01/23 00:02:36;;;;;;;16.95;2.40;;;;;;;;;;5113343;28;20135;-77
2024/01/23 00:05:02;;;;;;;16.67;2.35;;;;;;;;;;5113250;27;20050;-77
2024/01/23 00:07:28;;;;;;;15.88;2.15;;;;;;;;;;5113852;28;20066;-77
2024/01/23 00:09:54;;;;;;;15.65;2.40;;;;;;;;;;5114275;28;20112;-78
2024/01/23 00:12:20;;;;;;;20.05;2.50;;;;;;;;;;5114246;28;20047;-77
2024/01/23 00:14:46;;;;;;;16.63;2.58;;;;;;;;;;5096683;28;20077;-77
2024/01/23 00:17:12;;;;;;;15.73;2.00;;;;;;;;;;5114296;28;20047;-77
2024/01/23 00:19:38;;;;;;;13.57;1.95;;;;;;;;;;5113307;28;20373;-77
2024/01/23 00:22:04;;;;;;;15.80;2.35;;;;;;;;;;5112980;28;20054;-77
2024/01/23 00:24:30;;;;;;;17.08;2.17;;;;;;;;;;5114138;28;20548;-77
2024/01/23 00:26:56;;;;;;;12.63;2.08;;;;;;;;;;5113519;28;20139;-77
2024/01/23 00:29:23;;;;;;;19.90;2.55;;;;;;;;;;5112955;28;20048;-77
2024/01/23 00:31:49;;;;;;;17.60;2.00;;;;;;;;;;5114085;28;20040;-77
2024/01/23 00:34:15;;;;;;;17.40;2.25;;;;;;;;;;5113151;28;20051;-77
2024/01/23 00:36:42;;;;;;;18.58;1.60;;;;;;;;;;5113764;28;20600;-77
2024/01/23 00:39:08;;;;;;;18.58;2.05;;;;;;;;;;5113856;28;20488;-77
2024/01/23 00:41:34;;;;;;;25.27;2.50;;;;;;;;;;5112451;28;20448;-77
2024/01/23 00:44:00;;;;;;;14.82;1.95;;;;;;;;;;5113007;28;20052;-77
2024/01/23 00:46:27;;;;;;;19.77;2.50;;;;;;;;;;5113943;28;20043;-77
2024/01/23 00:48:53;;;;;;;18.60;1.60;;;;;;;;;;5112942;28;20089;-77
2024/01/23 00:51:19;;;;;;;11.07;2.10;;;;;;;;;;5112745;28;20051;-77
2024/01/23 00:53:45;;;;;;;16.00;2.22;;;;;;;;;;5114128;28;20403;-77
2024/01/23 00:56:12;;;;;;;21.15;2.08;;;;;;;;;;5112061;28;20044;-77
2024/01/23 00:58:38;;;;;;;10.27;1.20;;;;;;;;;;5131293;28;20069;-77
2024/01/23 01:01:04;;;;;;;23.17;2.30;;;;;;;;;;5133988;28;20493;-77
2024/01/23 01:03:31;;;;;;;13.82;2.13;;;;;;;;;;5133234;28;20375;-77
2024/01/23 01:05:57;;;;;;;16.45;2.42;;;;;;;;;;5133387;28;20085;-77
2024/01/23 01:08:23;;;;;;;15.00;1.98;;;;;;;;;;5133322;28;20047;-77
2024/01/23 01:10:49;;;;;;;15.52;2.22;;;;;;;;;;5134296;28;20049;-77
2024/01/23 01:13:16;;;;;;;12.48;2.13;;;;;;;;;;5134309;28;20039;-77
2024/01/23 01:15:42;;;;;;;17.50;2.33;;;;;;;;;;5133514;27;20070;-77
2024/01/23 01:18:08;;;;;;;16.92;2.13;;;;;;;;;;5137533;27;20160;-78
2024/01/23 01:20:34;;;;;;;19.85;2.40;;;;;;;;;;5136465;27;20050;-78
2024/01/23 01:23:00;;;;;;;9.77;1.63;;;;;;;;;;5136515;27;20055;-77
2024/01/23 01:25:26;;;;;;;17.92;2.33;;;;;;;;;;5120058;27;20132;-77
2024/01/23 01:27:52;;;;;;;18.48;2.53;;;;;;;;;;5137525;27;20043;-77
2024/01/23 01:30:18;;;;;;;19.48;3.40;;;;;;;;;;5138028;27;20039;-77
2024/01/23 01:32:44;;;;;;;18.65;2.38;;;;;;;;;;5136763;27;20082;-77
2024/01/23 01:35:11;;;;;;;18.05;2.08;;;;;;;;;;5136979;27;20047;-77
2024/01/23 01:37:37;;;;;;;17.30;2.28;;;;;;;;;;5137755;27;20047;-77
2024/01/23 01:40:03;;;;;;;15.27;1.90;;;;;;;;;;5136913;27;20057;-77
2024/01/23 01:42:29;;;;;;;13.52;2.20;;;;;;;;;;5136522;27;20092;-77
2024/01/23 01:44:55;;;;;;;20.85;2.53;;;;;;;;;;5137535;27;20047;-77
2024/01/23 01:47:21;;;;;;;16.75;2.10;;;;;;;;;;5136469;27;20089;-78
2024/01/23 01:49:47;;;;;;;21.88;3.03;;;;;;;;;;5137593;27;20107;-77
2024/01/23 01:52:14;;;;;;;19.00;2.67;;;;;;;;;;5136447;27;20068;-77
2024/01/23 01:54:43;;;;;;;19.30;2.58;;;;;;;;;;5136822;27;20170;-78
2024/01/23 01:57:10;;;;;;;21.05;2.70;;;;;;;;;;5137190;27;20059;-77
2024/01/23 01:59:36;;;;;;;21.83;4.13;;;;;;;;;;5136214;27;20059;-77
2024/01/23 02:02:04;;;;;;;15.73;2.40;;;;;;;;;;5136082;27;20050;-77
2024/01/23 02:04:31;;;;;;;19.90;2.13;;;;;;;;;;5136348;27;20058;-77
2024/01/23 02:06:57;;;;;;;17.15;2.20;;;;;;;;;;5136334;27;20458;-78
2024/01/23 02:09:23;;;;;;;18.23;2.35;;;;;;;;;;5136421;27;20094;-77
2024/01/23 02:11:56;;;;;;;18.20;2.80;;;;;;;;;;5136221;27;20470;-77
2024/01/23 02:14:22;;;;;;;22.88;3.15;;;;;;;;;;5136161;27;20036;-78
2024/01/23 02:16:48;;;;;;;18.38;2.50;;;;;;;;;;5137139;27;20047;-77
2024/01/23 02:19:15;;;;;;;18.85;2.80;;;;;;;;;;5136037;27;20049;-77
2024/01/23 02:21:42;;;;;;;16.73;2.75;;;;;;;;;;5135797;27;20043;-77
2024/01/23 02:24:08;;;;;;;18.08;2.08;;;;;;;;;;5136095;27;20043;-77
2024/01/23 02:26:34;;;;;;;19.95;2.53;;;;;;;;;;5136494;27;20410;-78
2024/01/23 02:29:00;;;;;;;18.60;2.65;;;;;;;;;;5136722;27;20065;-77
2024/01/23 02:31:26;;;;;;;17.38;2.58;;;;;;;;;;5135898;27;20462;-77
2024/01/23 02:33:52;;;;;;;17.30;2.55;;;;;;;;;;5136711;27;20103;-77
2024/01/23 02:36:18;;;;;;;21.48;2.83;;;;;;;;;;5136763;27;20092;-77
2024/01/23 02:38:44;;;;;;;19.33;3.08;;;;;;;;;;5135464;27;20042;-77
2024/01/23 02:41:10;;;;;;;16.65;2.45;;;;;;;;;;5136561;27;20039;-77
2024/01/23 02:43:36;;;;;;;14.55;2.70;;;;;;;;;;5135290;27;20059;-77
2024/01/23 02:46:04;;;;;;;19.25;3.05;;;;;;;;;;5118463;27;20042;-77
2024/01/23 02:48:30;;;;;;;17.48;2.55;;;;;;;;;;5136269;27;20130;-77
2024/01/23 02:50:56;;;;;;;20.55;2.88;;;;;;;;;;5135524;27;20047;-77
2024/01/23 02:53:22;;;;;;;17.75;1.85;;;;;;;;;;5136328;27;20054;-77
2024/01/23 02:55:48;;;;;;;25.75;2.90;;;;;;;;;;5134637;27;20482;-77
2024/01/23 02:58:15;;;;;;;20.67;2.60;;;;;;;;;;5134817;27;20083;-77
2024/01/23 03:00:42;;;;;;;19.20;2.22;;;;;;;;;;5135094;27;20475;-78
2024/01/23 03:03:08;;;;;;;16.88;2.67;;;;;;;;;;5135155;27;20397;-77
2024/01/23 03:05:34;;;;;;;19.75;2.60;;;;;;;;;;5135923;27;20053;-78
2024/01/23 03:08:01;;;;;;;18.27;2.25;;;;;;;;;;5134858;27;20539;-77
2024/01/23 03:10:27;;;;;;;15.73;2.47;;;;;;;;;;5117997;27;20058;-77
2024/01/23 03:12:54;;;;;;;20.65;3.03;;;;;;;;;;5135863;27;20376;-78
2024/01/23 03:15:20;;;;;;;17.73;2.42;;;;;;;;;;5136016;27;20054;-77
2024/01/23 03:17:46;;;;;;;17.98;2.00;;;;;;;;;;5134843;27;20483;-77
2024/01/23 03:20:12;;;;;;;20.77;2.95;;;;;;;;;;5134883;27;20066;-78
2024/01/23 03:22:38;;;;;;;16.35;2.70;;;;;;;;;;5100802;27;20447;-78
2024/01/23 03:25:05;;;;;;;23.85;2.75;;;;;;;;;;5135659;27;20043;-78
2024/01/23 03:27:31;;;;;;;23.20;3.47;;;;;;;;;;5134198;27;20050;-78
2024/01/23 03:29:57;;;;;;;20.10;2.95;;;;;;;;;;5135518;27;20051;-78
2024/01/23 03:32:23;;;;;;;20.67;3.35;;;;;;;;;;5134471;27;20047;-78
2024/01/23 03:34:50;;;;;;;25.80;3.15;;;;;;;;;;5135542;27;20043;-78
2024/01/23 03:37:16;;;;;;;19.83;2.78;;;;;;;;;;5134412;27;20053;-78
2024/01/23 03:39:42;;;;;;;22.45;2.58;;;;;;;;;;5134981;27;20050;-78
2024/01/23 03:42:08;;;;;;;16.58;2.80;;;;;;;;;;5135895;27;20065;-78
2024/01/23 03:44:34;;;;;;;21.80;2.42;;;;;;;;;;5134053;27;20043;-78
2024/01/23 03:47:00;;;;;;;25.48;4.15;;;;;;;;;;5117309;27;20051;-78
2024/01/23 03:49:27;;;;;;;17.77;2.20;;;;;;;;;;5134903;27;20489;-78
2024/01/23 03:51:53;;;;;;;20.20;3.38;;;;;;;;;;5134110;27;20076;-78
2024/01/23 03:54:19;;;;;;;18.35;2.50;;;;;;;;;;5133896;27;20052;-77
2024/01/23 03:56:45;;;;;;;21.23;2.03;;;;;;;;;;5116285;27;20057;-78
2024/01/23 03:59:11;;;;;;;18.88;2.17;;;;;;;;;;5135173;27;20051;-78
2024/01/23 04:01:38;;;;;;;24.42;3.33;;;;;;;;;;5133904;27;20402;-78
2024/01/23 04:04:04;;;;;;;20.55;2.50;;;;;;;;;;5134201;27;20055;-78
2024/01/23 04:06:30;;;;;;;24.63;3.00;;;;;;;;;;5134801;27;20523;-78
2024/01/23 04:08:56;;;;;;;15.93;2.10;;;;;;;;;;5133961;27;20043;-78
2024/01/23 04:11:22;;;;;;;21.63;3.28;;;;;;;;;;5133978;27;20089;-78
2024/01/23 04:13:48;;;;;;;21.55;3.13;;;;;;;;;;5134032;27;20057;-78
2024/01/23 04:16:14;;;;;;;21.52;3.47;;;;;;;;;;5133979;27;20086;-78
2024/01/23 04:18:40;;;;;;;16.88;3.28;;;;;;;;;;5116708;28;20099;-78
2024/01/23 04:21:06;;;;;;;21.90;3.10;;;;;;;;;;5133567;27;20486;-78
2024/01/23 04:23:32;;;;;;;23.95;3.38;;;;;;;;;;5133797;27;20047;-78
2024/01/23 04:25:59;;;;;;;18.92;3.35;;;;;;;;;;5134179;27;20046;-78
2024/01/23 04:28:25;;;;;;;22.20;3.88;;;;;;;;;;5133504;27;20402;-78
2024/01/23 04:30:52;;;;;;;21.42;3.05;;;;;;;;;;5133536;28;20047;-78
2024/01/23 04:33:19;;;;;;;18.00;2.88;;;;;;;;;;5135094;27;20402;-78
2024/01/23 04:35:45;;;;;;;23.73;3.28;;;;;;;;;;5133687;28;20043;-77
2024/01/23 04:38:11;;;;;;;20.67;2.90;;;;;;;;;;5134611;28;20039;-78
2024/01/23 04:40:37;;;;;;;22.10;3.42;;;;;;;;;;5117004;28;20047;-78
2024/01/23 04:43:03;;;;;;;21.92;3.63;;;;;;;;;;5134518;28;20134;-78
2024/01/23 04:45:29;;;;;;;19.73;3.50;;;;;;;;;;5134575;28;20043;-78
2024/01/23 04:47:55;;;;;;;15.73;2.63;;;;;;;;;;5133305;28;20479;-78
2024/01/23 04:50:21;;;;;;;19.67;2.97;;;;;;;;;;5133556;27;20047;-77
2024/01/23 04:52:48;;;;;;;23.05;3.08;;;;;;;;;;5137034;27;20043;-78
2024/01/23 04:55:14;;;;;;;21.25;3.63;;;;;;;;;;5138678;27;20047;-77
2024/01/23 04:57:41;;;;;;;17.77;2.25;;;;;;;;;;5119876;27;20047;-78
2024/01/23 05:00:09;;;;;;;20.42;2.60;;;;;;;;;;5137491;27;20141;-78
2024/01/23 05:02:35;;;;;;;24.80;3.38;;;;;;;;;;5137423;27;20462;-78
2024/01/23 05:05:03;;;;;;;25.33;3.72;;;;;;;;;;5120294;27;20418;-78
2024/01/23 05:07:29;;;;;;;21.35;3.88;;;;;;;;;;5137555;27;20043;-78
2024/01/23 05:09:55;;;;;;;25.42;3.92;;;;;;;;;;5136667;27;20130;-78
2024/01/23 05:12:21;;;;;;;24.42;3.17;;;;;;;;;;5138119;27;20126;-78
2024/01/23 05:14:47;;;;;;;26.65;4.03;;;;;;;;;;5138279;27;20049;-78
2024/01/23 05:17:13;;;;;;;19.77;2.85;;;;;;;;;;5120154;27;20039;-78
2024/01/23 05:19:39;;;;;;;19.48;3.83;;;;;;;;;;5118754;27;20088;-78
2024/01/23 05:22:05;;;;;;;26.55;3.30;;;;;;;;;;5117494;28;20035;-77
2024/01/23 05:24:31;;;;;;;23.00;4.00;;;;;;;;;;5116359;28;20079;-78
2024/01/23 05:26:57;;;;;;;24.13;3.40;;;;;;;;;;5099152;28;20051;-78
2024/01/23 05:29:23;;;;;;;26.85;4.30;;;;;;;;;;5117931;28;20129;-78
2024/01/23 05:31:49;;;;;;;28.67;4.00;;;;;;;;;;5117227;28;20040;-78
2024/01/23 05:34:15;;;;;;;31.27;4.70;;;;;;;;;;5099490;28;20071;-78
2024/01/23 05:36:41;;;;;;;23.58;3.05;;;;;;;;;;5116332;28;20138;-78
2024/01/23 05:39:07;;;;;;;28.25;3.58;;;;;;;;;;5116405;28;20051;-78
2024/01/23 05:41:33;;;;;;;22.85;3.47;;;;;;;;;;5117120;28;20040;-78
2024/01/23 05:44:00;;;;;;;24.02;3.30;;;;;;;;;;5116471;28;20131;-78
2024/01/23 05:46:27;;;;;;;26.60;4.28;;;;;;;;;;5116170;28;20059;-78
2024/01/23 05:48:53;;;;;;;33.00;4.55;;;;;;;;;;5115970;28;20508;-78
2024/01/23 05:51:19;;;;;;;22.70;4.38;;;;;;;;;;5116286;28;20047;-78
2024/01/23 05:53:45;;;;;;;27.00;5.07;;;;;;;;;;5116524;28;20048;-78
2024/01/23 05:56:11;;;;;;;26.52;4.22;;;;;;;;;;5116478;28;20047;-78
2024/01/23 05:58:37;;;;;;;24.88;4.70;;;;;;;;;;5115462;28;20055;-78
2024/01/23 06:01:03;;;;;;;27.88;4.25;;;;;;;;;;5117262;28;20048;-78
2024/01/23 06:03:29;;;;;;;25.73;4.00;;;;;;;;;;5115172;28;20134;-78
2024/01/23 06:05:55;;;;;;;25.52;4.57;;;;;;;;;;5116697;28;20048;-78
2024/01/23 06:08:21;;;;;;;32.47;4.78;;;;;;;;;;5115580;28;20044;-78
2024/01/23 06:10:48;;;;;;;21.67;4.55;;;;;;;;;;5116445;28;20051;-78
2024/01/23 06:13:14;;;;;;;26.58;3.78;;;;;;;;;;5116206;28;20055;-78
2024/01/23 06:15:40;;;;;;;28.50;4.40;;;;;;;;;;5116265;28;20503;-78
2024/01/23 06:18:07;;;;;;;25.17;5.05;;;;;;;;;;5115634;28;20429;-78
2024/01/23 06:20:33;;;;;;;30.95;5.28;;;;;;;;;;5115355;28;20075;-78
2024/01/23 06:22:59;;;;;;;24.85;3.78;;;;;;;;;;5115056;28;20365;-78
2024/01/23 06:25:25;;;;;;;30.40;4.35;;;;;;;;;;5115103;28;20549;-78
2024/01/23 06:27:51;;;;;;;25.80;3.88;;;;;;;;;;5115893;28;20055;-78
2024/01/23 06:30:18;;;;;;;31.20;4.40;;;;;;;;;;5115323;28;20055;-78
2024/01/23 06:32:44;;;;;;;26.90;4.10;;;;;;;;;;5115000;28;20407;-78
2024/01/23 06:35:10;;;;;;;27.50;4.80;;;;;;;;;;5116146;28;20076;-78
2024/01/23 06:37:36;;;;;;;24.65;4.20;;;;;;;;;;5116392;28;20043;-78
2024/01/23 06:40:02;;;;;;;28.48;4.00;;;;;;;;;;5115085;28;20043;-78
2024/01/23 06:42:28;;;;;;;24.30;3.53;;;;;;;;;;5114714;28;20079;-78
2024/01/23 06:44:54;;;;;;;31.13;4.10;;;;;;;;;;5098092;28;20058;-78
2024/01/23 06:47:20;;;;;;;31.90;5.05;;;;;;;;;;5115936;28;20046;-78
2024/01/23 06:49:47;;;;;;;26.20;4.38;;;;;;;;;;5115947;28;20039;-78
2024/01/23 06:52:13;;;;;;;26.23;3.67;;;;;;;;;;5114910;28;20437;-78
2024/01/23 06:54:40;;;;;;;32.40;5.00;;;;;;;;;;5114754;28;20387;-78
2024/01/23 06:57:06;;;;;;;24.92;4.60;;;;;;;;;;5117130;27;20055;-78
2024/01/23 06:59:32;;;;;;;33.78;5.72;;;;;;;;;;5136242;27;20055;-78
2024/01/23 07:01:58;;;;;;;24.30;4.10;;;;;;;;;;5136105;27;20050;-78
2024/01/23 07:04:24;;;;;;;30.83;4.35;;;;;;;;;;5118019;27;20047;-78
2024/01/23 07:06:50;;;;;;;29.45;4.45;;;;;;;;;;5136142;27;20039;-78
2024/01/23 07:09:16;;;;;;;24.73;4.28;;;;;;;;;;5118153;27;20394;-78
2024/01/23 07:11:43;;;;;;;34.22;5.07;;;;;;;;;;5135971;27;20039;-77
2024/01/23 07:14:09;;;;;;;23.50;4.00;;;;;;;;;;5135085;27;20043;-78
2024/01/23 07:16:35;;;;;;;29.58;5.10;;;;;;;;;;5117779;27;20371;-78
2024/01/23 07:19:01;;;;;;;31.35;5.22;;;;;;;;;;5135872;27;20078;-77
2024/01/23 07:21:27;;;;;;;25.25;3.92;;;;;;;;;;5100522;27;20158;-78
2024/01/23 07:23:54;;;;;;;27.17;4.50;;;;;;;;;;5117694;27;20078;-78
2024/01/23 07:26:20;;;;;;;32.28;4.18;;;;;;;;;;5116971;27;20091;-78
2024/01/23 07:28:46;;;;;;;35.15;5.47;;;;;;;;;;5101153;27;20130;-80
2024/01/23 07:31:12;;;;;;;29.52;5.03;;;;;;;;;;5117400;27;20061;-80
2024/01/23 07:33:39;;;;;;;28.00;4.05;;;;;;;;;;5117463;27;20432;-80
2024/01/23 07:36:05;;;;;;;32.15;4.93;;;;;;;;;;5117336;27;20039;-80
2024/01/23 07:38:31;;;;;;;31.17;4.90;;;;;;;;;;5117296;27;20471;-82
2024/01/23 07:40:58;;;;;;;28.75;4.72;;;;;;;;;;5082982;27;20087;-81
2024/01/23 07:43:27;;;;;;;34.30;4.97;;;;;;;;;;5117169;27;20035;-80
2024/01/23 07:45:54;;;;;;;29.13;5.10;;;;;;;;;;5100216;27;20085;-79
2024/01/23 07:48:20;;;;;;;29.13;3.90;;;;;;;;;;5116860;27;20441;-81
2024/01/23 07:50:46;;;;;;;30.60;4.43;;;;;;;;;;5083165;27;20475;-81
2024/01/23 07:53:12;;;;;;;27.20;4.70;;;;;;;;;;5117123;27;20047;-87
2024/01/23 07:55:38;;;;;;;30.48;4.78;;;;;;;;;;5100064;27;20051;-81
2024/01/23 07:58:04;;;;;;;31.27;4.80;;;;;;;;;;5116015;27;20483;-79
2024/01/23 08:00:31;;;;;;;30.05;4.28;;;;;;;;;;5116878;27;20043;-84
2024/01/23 08:02:57;;;;;;;30.13;4.95;;;;;;;;;;5116913;27;20068;-78
2024/01/23 08:05:23;;;;;;;26.48;4.38;;;;;;;;;;5100037;27;20089;-78
2024/01/23 08:07:49;;;;;;;25.98;4.18;;;;;;;;;;5134857;27;20058;-78
2024/01/23 08:10:15;;;;;;;30.70;5.22;;;;;;;;;;5116528;27;20043;-78
2024/01/23 08:12:41;;;;;;;28.00;5.32;;;;;;;;;;5117472;27;20039;-83
2024/01/23 08:15:08;;;;;;;27.23;4.63;;;;;;;;;;5116718;27;20047;-81
2024/01/23 08:17:34;;;;;;;38.45;4.82;;;;;;;;;;5116824;27;20051;-78
2024/01/23 08:20:00;;;;;;;27.52;5.35;;;;;;;;;;5116537;28;20054;-79
2024/01/23 08:22:26;;;;;;;27.63;4.18;;;;;;;;;;5134831;27;20151;-78
2024/01/23 08:24:52;;;;;;;30.52;4.85;;;;;;;;;;5135373;27;20054;-79
2024/01/23 08:27:18;;;;;;;37.40;5.00;;;;;;;;;;5116337;27;20088;-78
2024/01/23 08:29:45;;;;;;;30.90;4.82;;;;;;;;;;5099246;28;20055;-78
2024/01/23 08:32:11;;;;;;;32.78;5.47;;;;;;;;;;5083133;28;20058;-78
2024/01/23 08:34:37;;;;;;;33.65;5.32;;;;;;;;;;5134660;28;20049;-78
2024/01/23 08:37:04;;;;;;;32.00;4.85;;;;;;;;;;5116538;28;20078;-78
2024/01/23 08:39:30;;;;;;;20.98;3.22;;;;;;;;;;5116458;28;20475;-78
2024/01/23 08:41:56;;;;;;;25.73;4.78;;;;;;;;;;5134485;28;20117;-78
2024/01/23 08:44:23;;;;;;;28.05;4.47;;;;;;;;;;5116477;28;20043;-78
2024/01/23 08:46:49;;;;;;;27.50;4.72;;;;;;;;;;5116160;28;20051;-78
2024/01/23 08:49:16;;;;;;;28.02;4.35;;;;;;;;;;5116540;28;20043;-78
2024/01/23 08:51:42;;;;;;;26.13;4.15;;;;;;;;;;5116385;28;20062;-79
2024/01/23 08:54:08;;;;;;;35.00;4.80;;;;;;;;;;5116436;28;20047;-78
2024/01/23 08:56:34;;;;;;;24.98;4.22;;;;;;;;;;5134790;28;20043;-78
2024/01/23 08:59:01;;;;;;;30.63;4.85;;;;;;;;;;5135264;28;20142;-78
2024/01/23 09:01:27;;;;;;;28.05;4.35;;;;;;;;;;5116472;28;20168;-78
2024/01/23 09:03:53;;;;;;;24.33;4.43;;;;;;;;;;5134409;28;20043;-78
2024/01/23 09:06:19;;;;;;;27.10;5.32;;;;;;;;;;5134314;28;20126;-78
2024/01/23 09:08:45;;;;;;;27.65;4.55;;;;;;;;;;5134314;28;20046;-78
2024/01/23 09:11:11;;;;;;;29.95;5.50;;;;;;;;;;5116270;28;20051;-78
2024/01/23 09:13:37;;;;;;;34.97;5.20;;;;;;;;;;5116229;28;20047;-78
2024/01/23 09:16:04;;;;;;;27.33;5.32;;;;;;;;;;5134444;28;20395;-78
2024/01/23 09:18:30;;;;;;;26.85;4.45;;;;;;;;;;5098781;28;20047;-79
2024/01/23 09:20:58;;;;;;;29.58;4.75;;;;;;;;;;5115643;28;20123;-78
2024/01/23 09:23:24;;;;;;;25.38;4.70;;;;;;;;;;5116145;28;20043;-78
2024/01/23 09:25:50;;;;;;;30.27;4.40;;;;;;;;;;5134130;28;20061;-78
2024/01/23 09:28:16;;;;;;;25.88;4.50;;;;;;;;;;5098754;28;20129;-78
2024/01/23 09:30:43;;;;;;;29.17;4.53;;;;;;;;;;5115883;28;20055;-78
2024/01/23 09:33:09;;;;;;;27.10;4.60;;;;;;;;;;5116066;28;20051;-78
2024/01/23 09:35:36;;;;;;;24.00;4.82;;;;;;;;;;5112427;28;20466;-80
2024/01/23 09:38:03;;;;;;;23.65;4.25;;;;;;;;;;5114597;27;20438;-79
2024/01/23 09:40:29;;;;;;;24.25;4.97;;;;;;;;;;5101914;27;20047;-78
2024/01/23 09:42:56;;;;;;;23.80;3.70;;;;;;;;;;5118191;27;20043;-79
2024/01/23 09:45:25;;;;;;;29.67;4.50;;;;;;;;;;5134422;27;20039;-79
2024/01/23 09:47:52;;;;;;;29.40;4.63;;;;;;;;;;5119021;27;20047;-79
2024/01/23 09:50:18;;;;;;;24.25;4.18;;;;;;;;;;5117510;27;20077;-79
2024/01/23 09:52:45;;;;;;;29.88;4.68;;;;;;;;;;5117458;27;20046;-78
2024/01/23 09:55:12;;;;;;;20.00;4.22;;;;;;;;;;5136866;27;20042;-78
2024/01/23 09:57:39;;;;;;;25.80;4.85;;;;;;;;;;5117541;27;20116;-79
2024/01/23 10:00:11;;;;;;;28.80;5.60;;;;;;;;;;5118283;27;20107;-78
2024/01/23 10:02:39;;;;;;;23.17;4.43;;;;;;;;;;5103249;27;20054;-78
2024/01/23 10:05:07;;;;;;;30.30;5.47;;;;;;;;;;5130136;27;20034;-78
2024/01/23 10:07:34;;;;;;;26.17;5.07;;;;;;;;;;5146822;27;20045;-78
2024/01/23 10:10:04;;;;;;;30.65;5.40;;;;;;;;;;5146784;27;20068;-78
2024/01/23 10:12:32;;;;;;;25.30;4.65;;;;;;;;;;5143913;27;20154;-78
2024/01/23 10:14:59;;;;;;;25.42;4.50;;;;;;;;;;5128406;27;20504;-78
2024/01/23 10:17:25;;;;;;;28.85;5.70;;;;;;;;;;5129919;27;20424;-78
2024/01/23 10:19:51;;;;;;;32.13;5.45;;;;;;;;;;5146284;27;20436;-78
2024/01/23 10:22:18;;;;;;;25.88;4.55;;;;;;;;;;5128355;27;20073;-78
2024/01/23 10:24:44;;;;;;;33.25;5.45;;;;;;;;;;5148024;27;21137;-78
2024/01/23 10:27:10;;;;;;;32.42;5.55;;;;;;;;;;5124447;27;20046;-78
2024/01/23 10:29:36;;;;;;;25.40;5.35;;;;;;;;;;5128485;27;20394;-78
2024/01/23 10:32:06;;;;;;;28.80;4.97;;;;;;;;;;5129389;27;20479;-78
2024/01/23 10:34:32;;;;;;;25.45;4.50;;;;;;;;;;5125458;27;20042;-78
2024/01/23 10:36:58;;;;;;;31.90;6.32;;;;;;;;;;5111402;27;20038;-78
2024/01/23 10:39:24;;;;;;;22.33;4.43;;;;;;;;;;5129554;27;20078;-78
2024/01/23 10:41:52;;;;;;;28.05;4.35;;;;;;;;;;5127197;27;20035;-78
2024/01/23 10:44:20;;;;;;;22.58;4.30;;;;;;;;;;5143610;27;20050;-78
2024/01/23 10:46:47;;;;;;;27.38;5.28;;;;;;;;;;5118419;27;20053;-78
2024/01/23 10:49:13;;;;;;;23.88;4.10;;;;;;;;;;5112994;27;20046;-78
2024/01/23 10:51:39;;;;;;;26.05;4.38;;;;;;;;;;5139687;27;20086;-78
2024/01/23 10:54:09;;;;;;;19.77;3.08;;;;;;;;;;5157446;27;20089;-78
2024/01/23 10:56:42;;;;;;;26.02;4.53;;;;;;;;;;5156701;27;20051;-79
2024/01/23 10:59:16;;;;;;;22.77;4.35;;;;;;;;;;5138245;27;20054;-78
2024/01/23 11:01:45;;;;;;;18.92;3.88;;;;;;;;;;5139022;27;20122;-78
2024/01/23 11:04:11;;;;;;;23.65;4.68;;;;;;;;;;5138727;27;20439;-78
2024/01/23 11:06:47;;;;;;;17.77;4.53;;;;;;;;;;5121635;27;20137;-78
2024/01/23 11:09:17;;;;;;;28.15;4.72;;;;;;;;;;5138528;27;20481;-78
2024/01/23 11:11:50;;;;;;;26.15;4.22;;;;;;;;;;5156823;27;20486;-78
2024/01/23 11:14:26;;;;;;;27.35;4.25;;;;;;;;;;5130490;27;20106;-79
2024/01/23 11:17:03;;;;;;;27.88;4.43;;;;;;;;;;5142954;27;20047;-78
2024/01/23 11:19:29;;;;;;;24.38;4.93;;;;;;;;;;5109187;27;20531;-78
2024/01/23 11:22:04;;;;;;;24.55;5.18;;;;;;;;;;5110610;27;20571;-79
2024/01/23 11:24:44;;;;;;;24.00;3.88;;;;;;;;;;5120563;27;20394;-78
2024/01/23 11:27:23;;;;;;;23.70;4.93;;;;;;;;;;5135297;27;20046;-79
2024/01/23 11:29:50;;;;;;;28.02;5.05;;;;;;;;;;5117623;27;20390;-79
2024/01/23 11:32:20;;;;;;;22.25;4.53;;;;;;;;;;5117850;27;20061;-78
2024/01/23 11:34:47;;;;;;;25.77;4.57;;;;;;;;;;5117746;27;20043;-78
2024/01/23 11:37:32;;;;;;;25.45;5.38;;;;;;;;;;5135577;27;20055;-78
2024/01/23 11:39:58;;;;;;;;;;;;;;;;;;5117873;27;20588;-78
2024/01/23 11:42:34;;;;;;;28.25;4.35;;;;;;;;;;5117468;27;20006;-79
2024/01/23 11:45:19;;;;;;;21.92;3.95;;;;;;;;;;5135364;27;20047;-78
2024/01/23 11:47:45;;;;;;;27.77;4.75;;;;;;;;;;5117279;27;20425;-78
2024/01/23 11:50:11;;;;;;;26.70;4.10;;;;;;;;;;5135566;27;20043;-78
2024/01/23 11:52:38;;;;;;;24.05;4.60;;;;;;;;;;5135277;27;20138;-78
2024/01/23 11:55:05;;;;;;;24.15;4.80;;;;;;;;;;5135240;27;20054;-78
2024/01/23 11:57:33;;;;;;;26.23;5.97;;;;;;;;;;5134713;27;20055;-79
2024/01/23 11:59:59;;;;;;;26.35;4.18;;;;;;;;;;5116725;27;20047;-79
2024/01/23 12:02:25;;;;;;;27.73;4.97;;;;;;;;;;5116920;27;20116;-78
2024/01/23 12:04:51;;;;;;;22.20;4.97;;;;;;;;;;5135084;27;20043;-78
2024/01/23 12:07:18;;;;;;;26.88;4.35;;;;;;;;;;5117313;27;20085;-78
2024/01/23 12:09:44;;;;;;;25.80;4.18;;;;;;;;;;5130795;27;20039;-78
2024/01/23 12:12:10;;;;;;;26.25;4.85;;;;;;;;;;5137588;27;20092;-78
2024/01/23 12:14:36;;;;;;;28.58;4.32;;;;;;;;;;5120315;27;20042;-78
2024/01/23 12:17:04;;;;;;;27.35;4.85;;;;;;;;;;5137110;27;20126;-78
2024/01/23 12:19:43;;;;;;;19.90;4.30;;;;;;;;;;5155748;27;20058;-78
2024/01/23 12:22:09;;;;;;;28.52;4.70;;;;;;;;;;5137151;27;20100;-78
2024/01/23 12:24:35;;;;;;;23.95;3.85;;;;;;;;;;5137572;27;20046;-79
2024/01/23 12:27:01;;;;;;;22.50;4.53;;;;;;;;;;5155112;27;20121;-79
2024/01/23 12:29:28;;;;;;;25.52;4.28;;;;;;;;;;5137288;27;20099;-78
2024/01/23 12:31:56;;;;;;;23.45;4.85;;;;;;;;;;5140528;27;20042;-79
2024/01/23 12:34:22;;;;;;;27.13;4.05;;;;;;;;;;5116427;27;20126;-79
2024/01/23 12:36:50;;;;;;;25.30;3.97;;;;;;;;;;5096781;28;20044;-78
2024/01/23 12:39:19;;;;;;;22.08;4.32;;;;;;;;;;5134218;28;20047;-79
2024/01/23 12:41:45;;;;;;;21.13;4.25;;;;;;;;;;5115347;28;20074;-80
2024/01/23 12:44:11;;;;;;;24.80;4.15;;;;;;;;;;5116057;28;20095;-79
2024/01/23 12:46:38;;;;;;;24.63;3.95;;;;;;;;;;5134199;28;20130;-80
2024/01/23 12:49:04;;;;;;;19.20;4.35;;;;;;;;;;5116004;28;20046;-80
2024/01/23 12:51:31;;;;;;;19.10;3.47;;;;;;;;;;5116002;28;20067;-80
2024/01/23 12:53:57;;;;;;;17.42;3.65;;;;;;;;;;5099094;28;20073;-80
2024/01/23 12:56:23;;;;;;;28.02;4.70;;;;;;;;;;5115493;28;20390;-80
2024/01/23 12:58:53;;;;;;;22.85;3.72;;;;;;;;;;5115556;28;20414;-78
2024/01/23 13:01:19;;;;;;;28.63;4.70;;;;;;;;;;5115818;28;20042;-80
2024/01/23 13:03:47;;;;;;;29.70;5.03;;;;;;;;;;5115834;28;20035;-80
2024/01/23 13:06:13;;;;;;;21.50;3.72;;;;;;;;;;5115325;28;20061;-80
2024/01/23 13:08:40;;;;;;;26.15;4.68;;;;;;;;;;5116149;28;20046;-79
2024/01/23 13:11:06;;;;;;;25.00;4.68;;;;;;;;;;5116184;27;20047;-79
2024/01/23 13:13:33;;;;;;;15.93;2.72;;;;;;;;;;5101981;27;20108;-79
2024/01/23 13:15:59;;;;;;;26.13;4.65;;;;;;;;;;5119304;27;20558;-79
2024/01/23 13:18:25;;;;;;;24.10;4.03;;;;;;;;;;5137715;27;20491;-81
2024/01/23 13:20:51;;;;;;;19.05;4.32;;;;;;;;;;5103116;27;20043;-79
2024/01/23 13:23:17;;;;;;;19.80;4.55;;;;;;;;;;5119010;27;20039;-81
2024/01/23 13:25:44;;;;;;;24.25;4.20;;;;;;;;;;5117176;27;20071;-79
2024/01/23 13:28:10;;;;;;;25.40;4.25;;;;;;;;;;5118752;27;20039;-80
2024/01/23 13:30:36;;;;;;;23.52;3.72;;;;;;;;;;5119253;27;20046;-80
2024/01/23 13:33:03;;;;;;;20.65;4.28;;;;;;;;;;5119174;27;20035;-80
2024/01/23 13:35:29;;;;;;;29.90;5.20;;;;;;;;;;5119091;27;20479;-80
2024/01/23 13:37:55;;;;;;;23.60;4.25;;;;;;;;;;5118786;27;20047;-77
2024/01/23 13:40:21;;;;;;;27.45;4.35;;;;;;;;;;5137006;27;20039;-81
2024/01/23 13:42:48;;;;;;;22.70;3.95;;;;;;;;;;5102079;27;20050;-77
2024/01/23 13:45:14;;;;;;;28.17;4.22;;;;;;;;;;5136830;27;20525;-77
2024/01/23 13:47:44;;;;;;;27.98;4.30;;;;;;;;;;5101881;27;20080;-77
2024/01/23 13:50:10;;;;;;;20.27;4.03;;;;;;;;;;5136959;27;20373;-77
2024/01/23 13:52:36;;;;;;;23.30;3.92;;;;;;;;;;5101730;27;20039;-82
2024/01/23 13:55:06;;;;;;;24.63;3.92;;;;;;;;;;5120669;27;20122;-80
2024/01/23 13:57:33;;;;;;;23.30;4.13;;;;;;;;;;5132649;27;20062;-81
2024/01/23 13:59:59;;;;;;;27.63;4.85;;;;;;;;;;5117918;27;20062;-80
2024/01/23 14:02:25;;;;;;;17.67;3.05;;;;;;;;;;5118351;27;20120;-80
2024/01/23 14:04:51;;;;;;;27.70;4.25;;;;;;;;;;5101518;27;20035;-81
2024/01/23 14:07:18;;;;;;;31.23;4.53;;;;;;;;;;5098580;27;20043;-78
2024/01/23 14:09:44;;;;;;;25.38;4.32;;;;;;;;;;5119200;27;20126;-78
2024/01/23 14:12:11;;;;;;;21.88;3.72;;;;;;;;;;5118650;27;20509;-78
2024/01/23 14:14:37;;;;;;;18.67;3.90;;;;;;;;;;5119287;27;20047;-78
2024/01/23 14:17:04;;;;;;;25.05;4.60;;;;;;;;;;5101871;27;20160;-78
2024/01/23 14:19:30;;;;;;;25.85;4.15;;;;;;;;;;5137024;27;20050;-78
2024/01/23 14:21:56;;;;;;;22.38;3.83;;;;;;;;;;5118472;27;20039;-78
2024/01/23 14:24:23;;;;;;;22.92;4.30;;;;;;;;;;5119063;27;20054;-78
2024/01/23 14:26:49;;;;;;;28.10;4.03;;;;;;;;;;5118051;27;20401;-78